Time;durP1;ratioP1;P1;durP2;ratioP2;P2;SDS_P1;SDS_P2;PMS_P1;PMS_P2;Temp;Humidity;BMP_temperature;BMP_pressure;BME280_temperature;BME280_humidity;BME280_pressure;Samples;Min_cycle;Max_cycle;Signal;HPM_P1;HPM_P2
2023/09/10 00:02:05;;;;;;;11.47;10.10;;;;;15.40;97279.00;;;;5050904;28;20723;-84
2023/09/10 00:04:56;;;;;;;15.70;9.87;;;;;15.30;97271.00;;;;5045882;28;20212;-84
2023/09/10 00:07:45;;;;;;;13.90;9.93;;;;;15.60;97270.00;;;;5051924;28;20228;-85
2023/09/10 00:10:34;;;;;;;13.50;9.33;;;;;15.60;97265.00;;;;5052375;28;20204;-85
2023/09/10 00:13:23;;;;;;;10.43;9.47;;;;;15.30;97269.00;;;;5052407;28;20774;-85
2023/09/10 00:16:13;;;;;;;13.30;10.07;;;;;15.20;97266.00;;;;5049425;28;20740;-84
2023/09/10 00:19:02;;;;;;;10.53;9.50;;;;;15.30;97274.00;;;;5054586;28;20239;-85
2023/09/10 00:21:53;;;;;;;10.00;8.60;;;;;14.90;97269.00;;;;5053260;28;20203;-85
2023/09/10 00:24:42;;;;;;;10.30;9.17;;;;;15.00;97260.00;;;;5043648;28;20192;-86
2023/09/10 00:27:31;;;;;;;11.57;9.03;;;;;15.20;97264.00;;;;5053253;28;20201;-86
2023/09/10 00:30:20;;;;;;;9.63;8.63;;;;;15.50;97262.00;;;;5048274;28;20578;-86
2023/09/10 00:33:09;;;;;;;10.83;9.73;;;;;15.50;97263.00;;;;5052496;28;20208;-86
2023/09/10 00:35:58;;;;;;;12.10;9.10;;;;;15.30;97259.00;;;;5048210;28;20215;-87
2023/09/10 00:38:48;;;;;;;9.77;8.77;;;;;15.30;97260.00;;;;5044697;28;20216;-86
2023/09/10 00:41:37;;;;;;;11.77;9.37;;;;;15.20;97253.00;;;;5044870;28;20208;-85
2023/09/10 00:44:28;;;;;;;13.70;10.27;;;;;15.30;97261.00;;;;5036762;28;20206;-86
2023/09/10 00:47:17;;;;;;;10.37;9.37;;;;;15.20;97256.00;;;;5044428;28;20212;-85
2023/09/10 00:50:09;;;;;;;12.23;8.60;;;;;15.40;97261.00;;;;5045440;28;20201;-85
2023/09/10 00:52:59;;;;;;;14.70;9.60;;;;;15.50;97257.00;;;;5046161;28;20208;-86
2023/09/10 00:55:50;;;;;;;9.23;8.33;;;;;15.50;97256.00;;;;5042646;28;20239;-85
2023/09/10 00:58:39;;;;;;;11.57;9.43;;;;;15.30;97265.00;;;;5044819;28;20240;-85
2023/09/10 01:01:29;;;;;;;10.80;8.90;;;;;15.00;97258.00;;;;5046603;28;20216;-86
2023/09/10 01:04:19;;;;;;;11.47;9.60;;;;;15.00;97256.00;;;;5045546;28;20228;-86
2023/09/10 01:07:08;;;;;;;10.17;9.17;;;;;14.90;97257.00;;;;5049702;28;20219;-86
2023/09/10 01:09:57;;;;;;;10.47;9.43;;;;;15.00;97256.00;;;;5044896;28;20704;-86
2023/09/10 01:12:59;;;;;;;11.27;10.13;;;;;15.00;97248.00;;;;5042009;28;20193;-86
2023/09/10 01:15:53;;;;;;;10.83;8.90;;;;;15.10;97252.00;;;;5048805;28;20426;-86
2023/09/10 01:18:47;;;;;;;11.27;8.40;;;;;15.10;97254.00;;;;5044963;28;20225;-85
2023/09/10 01:21:47;;;;;;;15.23;9.70;;;;;15.00;97260.00;;;;5047101;28;20218;-86
2023/09/10 01:24:46;;;;;;;16.77;11.10;;;;;14.80;97265.00;;;;5050090;28;20220;-86
2023/09/10 01:27:35;;;;;;;11.23;9.77;;;;;14.80;97260.00;;;;5050518;28;20212;-86
2023/09/10 01:30:24;;;;;;;9.47;8.53;;;;;14.20;97253.00;;;;5049142;28;20981;-86
2023/09/10 01:33:19;;;;;;;11.40;10.23;;;;;14.30;97257.00;;;;5046774;28;20193;-86
2023/09/10 01:36:11;;;;;;;13.53;9.10;;;;;14.60;97252.00;;;;5046103;28;20581;-85
2023/09/10 01:39:07;;;;;;;11.47;10.30;;;;;14.90;97241.00;;;;5042730;28;20224;-85
2023/09/10 01:41:58;;;;;;;11.60;10.40;;;;;14.70;97246.00;;;;5044209;28;20204;-85
2023/09/10 01:44:47;;;;;;;12.63;9.73;;;;;14.70;97245.00;;;;5045986;28;20232;-85
2023/09/10 01:47:36;;;;;;;10.30;9.30;;;;;14.50;97249.00;;;;5045610;28;20692;-85
2023/09/10 01:50:25;;;;;;;13.83;11.43;;;;;14.70;97244.00;;;;5047157;28;20257;-86
2023/09/10 01:53:16;;;;;;;14.73;10.80;;;;;14.80;97252.00;;;;5046290;28;20204;-86
2023/09/10 01:56:06;;;;;;;11.27;10.17;;;;;14.90;97258.00;;;;5049852;28;20234;-86
2023/09/10 01:58:56;;;;;;;15.57;10.90;;;;;14.90;97248.00;;;;5048487;28;20255;-86
2023/09/10 02:01:45;;;;;;;12.17;10.67;;;;;14.90;97253.00;;;;5047273;28;20199;-85
2023/09/10 02:04:34;;;;;;;11.77;10.10;;;;;14.70;97240.00;;;;5045404;28;20235;-85
2023/09/10 02:07:23;;;;;;;11.33;9.77;;;;;14.50;97249.00;;;;5045905;28;20197;-86
2023/09/10 02:10:12;;;;;;;10.57;9.20;;;;;14.30;97243.00;;;;5049469;28;20204;-86
2023/09/10 02:13:02;;;;;;;12.00;10.10;;;;;14.10;97245.00;;;;5047365;28;20197;-86
2023/09/10 02:15:52;;;;;;;10.37;9.37;;;;;14.00;97238.00;;;;5043772;28;20201;-86
2023/09/10 02:18:41;;;;;;;15.57;10.57;;;;;14.10;97242.00;;;;5045830;28;20239;-86
2023/09/10 02:21:30;;;;;;;12.43;10.13;;;;;14.20;97240.00;;;;5049245;28;20203;-86
2023/09/10 02:24:19;;;;;;;13.23;11.10;;;;;14.20;97241.00;;;;5046742;28;22011;-86
2023/09/10 02:27:08;;;;;;;10.93;9.77;;;;;14.20;97243.00;;;;5046912;28;20200;-86
2023/09/10 02:29:57;;;;;;;11.03;9.87;;;;;14.30;97252.00;;;;5046166;28;20212;-86
2023/09/10 02:32:48;;;;;;;12.77;10.77;;;;;14.40;97249.00;;;;5045570;28;20208;-85
2023/09/10 02:35:37;;;;;;;13.47;10.87;;;;;14.10;97241.00;;;;5052039;28;20677;-86
2023/09/10 02:38:27;;;;;;;12.37;10.50;;;;;14.10;97231.00;;;;5050273;28;20229;-85
2023/09/10 02:41:16;;;;;;;13.33;10.23;;;;;14.20;97237.00;;;;5049945;28;20580;-86
2023/09/10 02:44:05;;;;;;;17.50;10.97;;;;;14.20;97241.00;;;;5051045;28;20239;-86
2023/09/10 02:46:54;;;;;;;13.60;11.23;;;;;14.20;97238.00;;;;5048950;28;20216;-86
2023/09/10 02:49:45;;;;;;;13.47;10.40;;;;;14.10;97246.00;;;;5051102;28;20347;-86
2023/09/10 02:52:34;;;;;;;11.83;10.53;;;;;14.30;97244.00;;;;5050510;28;20827;-86
2023/09/10 02:55:23;;;;;;;20.53;9.87;;;;;13.80;97240.00;;;;5049567;28;20220;-85
2023/09/10 02:58:12;;;;;;;11.77;8.97;;;;;13.80;97236.00;;;;5053000;28;20228;-85
2023/09/10 03:01:04;;;;;;;10.37;9.27;;;;;13.70;97244.00;;;;5047645;28;20617;-86
2023/09/10 03:03:53;;;;;;;12.57;9.60;;;;;14.00;97230.00;;;;5046315;28;20739;-86
2023/09/10 03:06:45;;;;;;;15.33;11.00;;;;;13.90;97233.00;;;;5052191;28;20205;-87
2023/09/10 03:09:34;;;;;;;12.30;11.03;;;;;14.10;97234.00;;;;5051953;28;20231;-85
2023/09/10 03:12:26;;;;;;;14.03;10.97;;;;;13.90;97235.00;;;;5051085;28;20212;-86
2023/09/10 03:15:15;;;;;;;13.83;12.43;;;;;14.00;97238.00;;;;5050457;28;20201;-87
2023/09/10 03:18:04;;;;;;;15.80;11.43;;;;;14.40;97242.00;;;;5050003;28;20228;-86
2023/09/10 03:20:54;;;;;;;16.20;11.73;;;;;14.50;97243.00;;;;5046525;28;20215;-86
2023/09/10 03:23:44;;;;;;;12.67;11.20;;;;;14.40;97240.00;;;;5046534;28;20228;-85
2023/09/10 03:26:33;;;;;;;12.87;11.53;;;;;14.00;97232.00;;;;5050016;28;20201;-85
2023/09/10 03:29:22;;;;;;;12.93;10.63;;;;;14.10;97235.00;;;;5049600;28;20224;-86
2023/09/10 03:32:11;;;;;;;12.17;10.83;;;;;13.70;97229.00;;;;5048958;28;20599;-86
2023/09/10 03:35:03;;;;;;;15.63;11.03;;;;;13.90;97232.00;;;;5051009;28;20213;-86
2023/09/10 03:37:52;;;;;;;15.20;9.70;;;;;13.70;97231.00;;;;5052433;28;20693;-86
2023/09/10 03:40:42;;;;;;;12.60;11.00;;;;;13.40;97228.00;;;;5048693;28;20213;-86
2023/09/10 03:43:31;;;;;;;11.87;10.63;;;;;13.40;97236.00;;;;5048983;28;20216;-86
2023/09/10 03:46:20;;;;;;;12.57;11.27;;;;;13.30;97236.00;;;;5048170;28;20623;-86
2023/09/10 03:49:09;;;;;;;10.73;9.07;;;;;13.00;97231.00;;;;5051168;28;20239;-86
2023/09/10 03:51:59;;;;;;;16.33;11.20;;;;;13.40;97215.00;;;;5047214;28;20587;-85
2023/09/10 03:54:48;;;;;;;13.60;11.13;;;;;13.10;97222.00;;;;5044957;28;20200;-86
2023/09/10 03:57:38;;;;;;;16.83;11.53;;;;;13.20;97214.00;;;;5051079;28;20200;-87
2023/09/10 04:00:29;;;;;;;13.97;11.40;;;;;13.40;97205.00;;;;5052833;28;20604;-85
2023/09/10 04:03:18;;;;;;;14.67;10.87;;;;;13.20;97211.00;;;;5045410;28;20303;-87
2023/09/10 04:06:07;;;;;;;12.97;11.57;;;;;13.20;97211.00;;;;5051722;28;20208;-88
2023/09/10 04:08:56;;;;;;;12.77;11.47;;;;;13.30;97208.00;;;;5047398;28;20225;-85
2023/09/10 04:11:45;;;;;;;11.60;10.07;;;;;13.20;97214.00;;;;5045235;28;20218;-87
2023/09/10 04:14:35;;;;;;;13.50;11.73;;;;;13.20;97219.00;;;;5049813;28;20208;-85
2023/09/10 04:17:28;;;;;;;13.67;12.23;;;;;13.10;97213.00;;;;5049856;28;20207;-85
2023/09/10 04:20:19;;;;;;;12.60;11.20;;;;;13.10;97219.00;;;;5052857;28;20205;-85
2023/09/10 04:23:08;;;;;;;12.07;10.87;;;;;13.20;97210.00;;;;5049288;28;20212;-85
2023/09/10 04:25:57;;;;;;;20.47;13.13;;;;;13.40;97198.00;;;;5050448;28;20228;-86
2023/09/10 04:28:46;;;;;;;15.13;10.87;;;;;13.70;97213.00;;;;5045243;28;20236;-87
2023/09/10 04:31:41;;;;;;;13.90;12.43;;;;;13.30;97212.00;;;;5051645;28;20205;-86
2023/09/10 04:34:30;;;;;;;12.90;11.57;;;;;13.30;97206.00;;;;5048912;28;20200;-86
2023/09/10 04:37:20;;;;;;;12.80;11.43;;;;;13.10;97216.00;;;;5049897;28;20212;-86
2023/09/10 04:40:11;;;;;;;12.80;11.50;;;;;13.30;97218.00;;;;5050863;28;20201;-86
2023/09/10 04:43:00;;;;;;;12.37;11.17;;;;;13.10;97221.00;;;;5047205;28;20210;-87
2023/09/10 04:45:49;;;;;;;12.27;10.97;;;;;13.10;97220.00;;;;5049525;28;20617;-86
2023/09/10 04:48:40;;;;;;;15.17;12.70;;;;;13.60;97222.00;;;;5052564;28;20224;-86
2023/09/10 04:51:29;;;;;;;13.90;12.40;;;;;13.90;97227.00;;;;5047609;28;20204;-85
2023/09/10 04:54:18;;;;;;;16.60;12.30;;;;;14.10;97223.00;;;;5046069;28;20209;-86
2023/09/10 04:57:07;;;;;;;15.03;11.80;;;;;13.70;97226.00;;;;5049715;28;20202;-86
2023/09/10 04:59:56;;;;;;;14.03;12.43;;;;;13.60;97231.00;;;;5045869;28;20227;-86
2023/09/10 05:02:45;;;;;;;13.30;10.63;;;;;13.40;97238.00;;;;5048140;28;20248;-85
2023/09/10 05:05:37;;;;;;;11.33;9.90;;;;;13.40;97232.00;;;;5051037;28;20307;-86
2023/09/10 05:08:26;;;;;;;13.70;12.07;;;;;13.60;97235.00;;;;5048788;28;20231;-86
2023/09/10 05:11:15;;;;;;;16.03;12.37;;;;;14.00;97239.00;;;;5043963;28;20725;-86
2023/09/10 05:14:04;;;;;;;15.00;12.33;;;;;14.20;97248.00;;;;5049804;28;20208;-86
2023/09/10 05:16:53;;;;;;;13.40;12.10;;;;;14.10;97234.00;;;;5045131;28;20239;-86
2023/09/10 05:19:43;;;;;;;13.23;11.83;;;;;14.10;97243.00;;;;5041849;28;20236;-87
2023/09/10 05:22:33;;;;;;;13.17;11.07;;;;;13.60;97230.00;;;;5048813;28;20228;-86
2023/09/10 05:25:22;;;;;;;13.07;10.83;;;;;13.40;97232.00;;;;5047820;28;20221;-85
2023/09/10 05:28:10;;;;;;;16.97;10.00;;;;;13.70;97248.00;;;;5052059;28;20231;-86
2023/09/10 05:31:04;;;;;;;12.60;11.37;;;;;13.80;97237.00;;;;5050431;28;20204;-87
2023/09/10 05:33:53;;;;;;;12.33;11.00;;;;;14.10;97240.00;;;;5046386;28;20205;-87
2023/09/10 05:36:42;;;;;;;12.87;11.30;;;;;14.20;97244.00;;;;5050356;28;20193;-87
2023/09/10 05:39:32;;;;;;;12.17;11.07;;;;;14.20;97241.00;;;;5048507;28;20227;-86
2023/09/10 05:42:21;;;;;;;13.33;9.97;;;;;13.80;97240.00;;;;5048808;28;20901;-87
2023/09/10 05:45:11;;;;;;;14.23;11.97;;;;;14.10;97254.00;;;;5049588;28;20231;-87
2023/09/10 05:48:00;;;;;;;14.23;12.73;;;;;14.50;97249.00;;;;5050995;28;20236;-86
2023/09/10 05:50:49;;;;;;;14.83;11.90;;;;;14.90;97248.00;;;;5045231;28;20200;-86
2023/09/10 05:53:40;;;;;;;13.70;12.17;;;;;15.00;97253.00;;;;5048230;28;20193;-87
2023/09/10 05:56:30;;;;;;;14.77;13.23;;;;;15.40;97254.00;;;;5048212;28;20199;-86
2023/09/10 05:59:19;;;;;;;14.37;12.87;;;;;15.40;97248.00;;;;5050338;28;20217;-86
2023/09/10 06:02:08;;;;;;;14.07;12.30;;;;;15.50;97257.00;;;;5035937;28;20670;-86
2023/09/10 06:04:57;;;;;;;15.23;10.50;;;;;15.10;97252.00;;;;5045058;28;20637;-86
2023/09/10 06:07:47;;;;;;;15.23;10.83;;;;;15.40;97253.00;;;;5051120;28;20228;-86
2023/09/10 06:10:36;;;;;;;14.03;12.50;;;;;15.70;97242.00;;;;5052055;28;20223;-86
2023/09/10 06:13:28;;;;;;;16.87;12.67;;;;;15.50;97249.00;;;;5044633;28;20207;-87
2023/09/10 06:16:17;;;;;;;16.13;12.30;;;;;15.60;97253.00;;;;5048403;28;20193;-86
2023/09/10 06:19:06;;;;;;;17.93;13.23;;;;;16.00;97247.00;;;;5046026;28;20243;-86
2023/09/10 06:21:55;;;;;;;17.10;12.70;;;;;16.40;97266.00;;;;5044251;28;20578;-86
2023/09/10 06:24:44;;;;;;;17.37;13.20;;;;;16.30;97254.00;;;;5044898;28;20201;-85
2023/09/10 06:27:33;;;;;;;16.53;12.47;;;;;16.40;97253.00;;;;5044445;28;20209;-87
2023/09/10 06:30:23;;;;;;;17.43;13.40;;;;;16.80;97252.00;;;;5044010;28;20215;-85
2023/09/10 06:33:12;;;;;;;12.87;11.57;;;;;17.10;97248.00;;;;5046682;28;20561;-85
2023/09/10 06:36:02;;;;;;;16.27;12.60;;;;;17.20;97254.00;;;;5046165;28;20582;-85
2023/09/10 06:38:51;;;;;;;21.30;13.63;;;;;17.60;97261.00;;;;5047789;28;20219;-85
2023/09/10 06:41:40;;;;;;;20.80;12.80;;;;;17.80;97257.00;;;;5048008;28;20207;-85
2023/09/10 06:44:29;;;;;;;18.13;13.13;;;;;17.90;97245.00;;;;5045850;28;20685;-85
2023/09/10 06:47:19;;;;;;;16.43;12.47;;;;;18.30;97248.00;;;;5045545;28;20211;-85
2023/09/10 06:50:09;;;;;;;14.90;12.50;;;;;18.50;97253.00;;;;5046616;28;20390;-85
2023/09/10 06:52:58;;;;;;;19.93;13.60;;;;;18.50;97249.00;;;;5048370;28;20200;-85
2023/09/10 06:55:47;;;;;;;16.80;12.70;;;;;18.80;97260.00;;;;5047311;28;20203;-86
2023/09/10 06:58:36;;;;;;;14.97;12.37;;;;;19.20;97257.00;;;;5046654;28;20613;-85
2023/09/10 07:01:25;;;;;;;16.60;12.53;;;;;19.40;97255.00;;;;5047201;28;20196;-86
2023/09/10 07:04:20;;;;;;;15.37;12.83;;;;;19.80;97253.00;;;;5041945;28;20213;-85
2023/09/10 07:07:09;;;;;;;17.70;12.03;;;;;19.80;97252.00;;;;5051035;28;20283;-85
2023/09/10 07:09:58;;;;;;;19.50;12.23;;;;;19.80;97256.00;;;;5049956;28;20612;-84
2023/09/10 07:12:47;;;;;;;14.50;12.00;;;;;20.20;97262.00;;;;5048037;28;20580;-85
2023/09/10 07:15:37;;;;;;;15.87;12.40;;;;;20.50;97257.00;;;;5048143;28;20215;-86
2023/09/10 07:18:27;;;;;;;15.50;12.60;;;;;20.60;97261.00;;;;5047694;28;20237;-85
2023/09/10 07:21:17;;;;;;;15.00;11.50;;;;;20.90;97270.00;;;;5043520;22;21054;-68
2023/09/10 07:24:08;;;;;;;15.13;11.03;;;;;20.70;97258.00;;;;5041989;28;20211;-68
2023/09/10 07:26:58;;;;;;;14.00;11.30;;;;;20.80;97261.00;;;;5033050;28;20701;-68
2023/09/10 07:29:48;;;;;;;17.40;11.10;;;;;20.90;97260.00;;;;5044576;28;20716;-68
2023/09/10 07:32:38;;;;;;;16.27;11.87;;;;;21.30;97269.00;;;;5049745;28;20209;-69
2023/09/10 07:35:28;;;;;;;18.97;11.77;;;;;21.20;97260.00;;;;5040419;28;21145;-68
2023/09/10 07:38:18;;;;;;;14.13;11.03;;;;;21.30;97257.00;;;;5034575;28;20232;-68
2023/09/10 07:41:07;;;;;;;14.60;10.80;;;;;21.80;97255.00;;;;5041183;28;21257;-68
2023/09/10 07:43:57;;;;;;;19.13;10.93;;;;;21.60;97258.00;;;;5038545;28;20858;-68
2023/09/10 07:46:46;;;;;;;14.07;10.43;;;;;21.80;97260.00;;;;5041415;28;21051;-69
2023/09/10 07:49:35;;;;;;;15.13;10.77;;;;;22.00;97260.00;;;;5038444;28;20731;-69
2023/09/10 07:52:24;;;;;;;17.30;10.43;;;;;22.20;97267.00;;;;5045113;28;21441;-69
2023/09/10 07:55:15;;;;;;;13.43;11.13;;;;;22.30;97246.00;;;;5043619;28;20211;-69
2023/09/10 07:58:05;;;;;;;15.33;11.00;;;;;22.20;97252.00;;;;5045708;28;20600;-69
2023/09/10 08:00:57;;;;;;;13.57;10.33;;;;;22.50;97241.00;;;;5038144;28;20696;-69
2023/09/10 08:03:46;;;;;;;16.50;10.60;;;;;22.50;97238.00;;;;5043373;28;20201;-69
2023/09/10 08:06:35;;;;;;;13.83;9.57;;;;;23.00;97240.00;;;;5036225;28;20289;-68
2023/09/10 08:09:27;;;;;;;14.30;11.00;;;;;23.20;97239.00;;;;5044358;28;21634;-68
2023/09/10 08:12:17;;;;;;;13.67;9.60;;;;;23.10;97243.00;;;;5038998;28;20219;-70
2023/09/10 08:15:08;;;;;;;11.53;9.73;;;;;23.60;97243.00;;;;5042412;28;20216;-69
2023/09/10 08:17:58;;;;;;;12.73;10.03;;;;;23.90;97244.00;;;;5040973;28;20243;-69
2023/09/10 08:20:48;;;;;;;15.07;10.17;;;;;24.10;97247.00;;;;5039620;28;20560;-69
2023/09/10 08:23:37;;;;;;;16.27;9.60;;;;;24.20;97249.00;;;;5043153;28;20209;-69
2023/09/10 08:26:26;;;;;;;10.73;9.40;;;;;24.40;97246.00;;;;5044022;28;20224;-69
2023/09/10 08:29:17;;;;;;;17.23;10.07;;;;;24.70;97255.00;;;;5026803;28;20612;-69
2023/09/10 08:32:06;;;;;;;11.67;9.83;;;;;24.70;97252.00;;;;5041956;28;20197;-70
2023/09/10 08:34:55;;;;;;;15.27;9.03;;;;;24.80;97244.00;;;;5042889;28;20208;-69
2023/09/10 08:37:44;;;;;;;11.30;9.27;;;;;24.60;97242.00;;;;5038419;28;20223;-69
2023/09/10 08:40:34;;;;;;;11.93;8.90;;;;;25.00;97238.00;;;;5035613;28;20216;-70
2023/09/10 08:43:25;;;;;;;12.90;9.17;;;;;25.20;97243.00;;;;5033711;28;20215;-70
2023/09/10 08:46:15;;;;;;;12.50;9.47;;;;;25.40;97245.00;;;;5033435;28;20228;-71
2023/09/10 08:49:05;;;;;;;13.93;8.37;;;;;25.50;97239.00;;;;5036392;28;20228;-71
2023/09/10 08:51:54;;;;;;;12.33;9.40;;;;;25.60;97243.00;;;;5031627;28;20283;-72
2023/09/10 08:54:43;;;;;;;11.67;8.70;;;;;25.90;97230.00;;;;5039213;28;20208;-71
2023/09/10 08:57:33;;;;;;;11.60;10.07;;;;;26.10;97244.00;;;;5036035;28;20208;-70
2023/09/10 09:00:22;;;;;;;10.27;8.73;;;;;26.20;97235.00;;;;5033286;28;20205;-71
2023/09/10 09:03:13;;;;;;;8.57;7.57;;;;;26.20;97230.00;;;;5034450;28;20216;-71
2023/09/10 09:06:04;;;;;;;10.27;8.27;;;;;26.50;97231.00;;;;5039817;28;20211;-71
2023/09/10 09:08:56;;;;;;;11.70;8.77;;;;;26.50;97226.00;;;;5038879;28;20229;-72
2023/09/10 09:11:48;;;;;;;10.43;8.33;;;;;26.90;97219.00;;;;5038392;28;20206;-72
2023/09/10 09:14:42;;;;;;;10.93;9.10;;;;;26.80;97225.00;;;;5037180;28;20215;-72
2023/09/10 09:17:31;;;;;;;11.50;8.63;;;;;27.10;97228.00;;;;5033881;28;20571;-72
2023/09/10 09:20:22;;;;;;;9.50;8.13;;;;;27.30;97217.00;;;;5028877;28;20221;-73
2023/09/10 09:23:18;;;;;;;9.63;7.40;;;;;27.30;97222.00;;;;5039704;28;21058;-72
2023/09/10 09:26:08;;;;;;;13.97;8.30;;;;;27.60;97224.00;;;;5035236;28;20217;-71
2023/09/10 09:28:57;;;;;;;9.80;7.83;;;;;28.00;97217.00;;;;5040453;28;20623;-72
2023/09/10 09:31:46;;;;;;;10.73;8.20;;;;;28.10;97214.00;;;;5028203;28;20222;-72
2023/09/10 09:34:36;;;;;;;8.93;8.03;;;;;28.40;97220.00;;;;5037487;28;20254;-71
2023/09/10 09:37:26;;;;;;;10.10;7.37;;;;;28.50;97211.00;;;;5040446;28;20203;-71
2023/09/10 09:40:21;;;;;;;8.93;7.63;;;;;28.70;97215.00;;;;5039014;28;20202;-72
2023/09/10 09:43:11;;;;;;;8.40;7.23;;;;;29.00;97219.00;;;;5035325;28;20213;-71
2023/09/10 09:46:05;;;;;;;8.53;7.20;;;;;29.30;97207.00;;;;5039377;28;20219;-71
2023/09/10 09:48:54;;;;;;;10.13;7.27;;;;;29.40;97219.00;;;;5035650;28;20240;-72
2023/09/10 09:51:43;;;;;;;8.53;6.20;;;;;29.10;97212.00;;;;5038360;28;20211;-72
2023/09/10 09:54:36;;;;;;;9.40;7.00;;;;;29.80;97219.00;;;;5035086;28;20219;-71
2023/09/10 09:57:25;;;;;;;8.57;6.63;;;;;30.20;97214.00;;;;5038564;28;20197;-72
2023/09/10 10:00:14;;;;;;;8.40;6.97;;;;;30.20;97213.00;;;;5042608;28;20208;-71
2023/09/10 10:03:04;;;;;;;10.80;7.27;;;;;30.30;97208.00;;;;5038569;28;20202;-71
2023/09/10 10:05:54;;;;;;;7.87;7.00;;;;;30.40;97214.00;;;;5038948;28;22034;-70
2023/09/10 10:08:49;;;;;;;7.93;7.13;;;;;30.00;97203.00;;;;5044791;28;20584;-70
2023/09/10 10:11:40;;;;;;;6.80;6.20;;;;;30.50;97204.00;;;;5036675;28;20210;-71
2023/09/10 10:14:30;;;;;;;9.13;7.20;;;;;30.20;97194.00;;;;5038484;28;20206;-71
2023/09/10 10:17:21;;;;;;;10.57;6.10;;;;;30.90;97196.00;;;;5043460;28;20206;-71
2023/09/10 10:20:11;;;;;;;7.93;6.53;;;;;31.20;97185.00;;;;5039816;28;20232;-71
2023/09/10 10:23:01;;;;;;;7.57;6.80;;;;;31.40;97183.00;;;;5044094;28;20219;-71
2023/09/10 10:25:58;;;;;;;8.60;6.97;;;;;31.60;97184.00;;;;5039916;28;20271;-72
2023/09/10 10:28:50;;;;;;;8.13;6.47;;;;;31.60;97175.00;;;;5035453;28;20240;-70
2023/09/10 10:31:41;;;;;;;11.23;5.40;;;;;31.20;97169.00;;;;5028864;28;20216;-71
2023/09/10 10:34:35;;;;;;;6.83;6.20;;;;;31.10;97171.00;;;;5033726;28;20798;-70
2023/09/10 10:37:28;;;;;;;7.53;5.53;;;;;30.90;97172.00;;;;5034131;28;20213;-70
2023/09/10 10:40:20;;;;;;;7.10;6.30;;;;;31.30;97171.00;;;;5037496;28;20207;-69
2023/09/10 10:43:12;;;;;;;6.87;5.73;;;;;31.90;97173.00;;;;5042307;28;20217;-70
2023/09/10 10:46:04;;;;;;;8.80;6.70;;;;;32.60;97172.00;;;;5032096;28;20203;-70
2023/09/10 10:48:54;;;;;;;6.57;5.87;;;;;32.40;97164.00;;;;5034762;28;20234;-69
2023/09/10 10:51:47;;;;;;;7.87;6.00;;;;;32.50;97159.00;;;;5044446;28;20209;-71
2023/09/10 10:54:43;;;;;;;6.13;5.53;;;;;32.40;97157.00;;;;5035244;28;20206;-70
2023/09/10 10:57:32;;;;;;;6.05;5.38;;;;;33.20;97162.00;;;;5036752;28;20197;-70
2023/09/10 11:00:21;;;;;;;6.00;5.43;;;;;33.20;97152.00;;;;5039117;28;20196;-74
2023/09/10 11:03:14;;;;;;;6.25;5.63;;;;;33.40;97150.00;;;;5044716;28;20223;-71
2023/09/10 11:06:07;;;;;;;8.52;5.90;;;;;34.20;97152.00;;;;5040834;28;20690;-71
2023/09/10 11:08:57;;;;;;;6.72;5.32;;;;;34.30;97143.00;;;;5040832;28;20227;-72
2023/09/10 11:11:48;;;;;;;7.22;6.28;;;;;34.20;97146.00;;;;5044207;28;20200;-72
2023/09/10 11:15:10;;;;;;;5.15;4.65;;;;;34.40;97139.00;;;;5042098;28;20209;-73
2023/09/10 11:18:42;;;;;;;6.43;5.47;;;;;34.70;97141.00;;;;4978274;28;20219;-73
2023/09/10 11:22:03;;;;;;;5.72;5.05;;;;;34.90;97141.00;;;;5043086;28;20226;-72
2023/09/10 11:25:01;;;;;;;6.40;5.80;;;;;34.80;97140.00;;;;5040473;28;20582;-73
2023/09/10 11:27:53;;;;;;;6.82;5.93;;;;;34.60;97141.00;;;;5038048;28;20236;-72
2023/09/10 11:30:42;;;;;;;6.30;5.38;;;;;35.00;97145.00;;;;5041511;28;20350;-72
2023/09/10 11:33:33;;;;;;;6.25;5.65;;;;;34.50;97138.00;;;;5037646;28;20213;-72
2023/09/10 11:36:26;;;;;;;8.90;6.00;;;;;35.20;97143.00;;;;5038982;28;20209;-72
2023/09/10 11:39:16;;;;;;;6.75;5.97;;;;;34.70;97141.00;;;;5037710;28;20591;-73
2023/09/10 11:42:09;;;;;;;8.25;5.32;;;;;35.80;97137.00;;;;5033765;28;20201;-72
2023/09/10 11:44:58;;;;;;;5.93;5.32;;;;;35.10;97127.00;;;;5035063;28;20224;-72
2023/09/10 11:47:48;;;;;;;9.40;5.50;;;;;34.90;97117.00;;;;5034931;28;20232;-72
2023/09/10 11:50:37;;;;;;;6.20;5.60;;;;;34.50;97128.00;;;;5042079;28;20209;-72
2023/09/10 11:53:28;;;;;;;7.38;5.28;;;;;35.60;97117.00;;;;5042866;28;20207;-72
2023/09/10 11:56:17;;;;;;;9.25;5.38;;;;;36.30;97119.00;;;;5043048;28;20600;-72
2023/09/10 11:59:07;;;;;;;6.65;5.30;;;;;35.50;97116.00;;;;5037838;28;20228;-71
2023/09/10 12:01:57;;;;;;;5.80;5.22;;;;;35.20;97122.00;;;;5043698;28;20208;-71
2023/09/10 12:04:46;;;;;;;6.18;5.25;;;;;36.00;97113.00;;;;5045168;28;20209;-71
2023/09/10 12:07:35;;;;;;;6.00;5.03;;;;;35.00;97111.00;;;;5037717;28;20220;-71
2023/09/10 12:10:26;;;;;;;5.85;5.35;;;;;33.80;97116.00;;;;5041357;28;20721;-71
2023/09/10 12:13:15;;;;;;;8.65;5.80;;;;;35.20;97110.00;;;;5039343;28;20215;-72
2023/09/10 12:16:06;;;;;;;5.38;4.88;;;;;36.00;97106.00;;;;5034311;28;20232;-72
2023/09/10 12:18:55;;;;;;;6.80;5.70;;;;;36.60;97105.00;;;;5036674;28;20316;-71
2023/09/10 12:21:44;;;;;;;;;;;;;36.70;97106.00;;;;5038124;28;20038;-69
2023/09/10 12:24:33;;;;;;;;;;;33.40;65.60;37.10;97103.00;;;;5038082;28;20495;-71
2023/09/10 12:27:22;;;;;;;;;;;33.50;67.40;35.10;97102.00;;;;5036224;28;19925;-71
2023/09/10 12:30:13;;;;;;;7.03;5.45;;;33.50;62.70;35.30;97104.00;;;;5036050;28;20207;-71
2023/09/10 12:33:05;;;;;;;5.47;4.90;;;33.40;61.90;37.70;97101.00;;;;5035079;28;20209;-69
2023/09/10 12:35:53;;;;;;;6.22;5.63;;;33.50;64.80;37.50;97094.00;;;;5041890;28;20598;-70
2023/09/10 12:38:42;;;;;;;6.10;5.22;;;33.90;62.20;36.50;97091.00;;;;5038522;28;20226;-70
2023/09/10 12:41:31;;;;;;;6.30;5.00;;;34.20;62.00;37.30;97095.00;;;;5037484;28;20201;-70
2023/09/10 12:44:22;;;;;;;6.10;5.50;;;34.20;59.90;37.50;97093.00;;;;5039237;28;20193;-70
2023/09/10 12:47:11;;;;;;;5.90;5.25;;;34.40;59.50;38.40;97086.00;;;;5043878;28;20196;-70
2023/09/10 12:50:01;;;;;;;6.68;4.43;;;34.50;60.30;36.70;97085.00;;;;5043865;28;20220;-70
2023/09/10 12:52:53;;;;;;;8.02;5.45;;;34.60;58.80;37.20;97092.00;;;;5046630;28;20212;-70
2023/09/10 12:55:43;;;;;;;5.45;4.95;;;34.40;59.00;35.80;97085.00;;;;5034777;28;20297;-70
2023/09/10 12:58:31;;;;;;;6.93;5.35;;;34.10;58.30;35.90;97086.00;;;;5061085;22;20255;-73
2023/09/10 13:01:25;;;;;;;6.18;4.93;;;33.80;58.80;34.50;97082.00;;;;5036918;28;20200;-73
2023/09/10 13:04:14;;;;;;;5.72;4.80;;;33.30;58.00;35.90;97079.00;;;;5041203;28;20200;-72
2023/09/10 13:07:02;;;;;;;5.68;4.63;;;33.30;59.10;36.00;97071.00;;;;5039493;28;20685;-73
2023/09/10 13:09:51;;;;;;;5.45;5.00;;;33.20;59.00;36.70;97080.00;;;;5028545;28;20235;-72
2023/09/10 13:12:41;;;;;;;5.55;4.97;;;33.40;59.60;38.50;97083.00;;;;5022877;28;20203;-72
2023/09/10 13:15:29;;;;;;;5.57;4.45;;;33.90;60.40;39.30;97086.00;;;;5025641;28;20213;-72
2023/09/10 13:18:19;;;;;;;5.55;5.05;;;34.60;59.40;39.30;97085.00;;;;5026383;28;20233;-72
2023/09/10 13:21:08;;;;;;;6.20;4.80;;;35.10;59.40;39.20;97076.00;;;;5022386;28;20504;-73
2023/09/10 13:23:57;;;;;;;6.32;5.45;;;35.60;57.60;37.30;97085.00;;;;5020581;28;20193;-73
2023/09/10 13:26:46;;;;;;;5.63;5.00;;;35.40;55.50;36.90;97084.00;;;;5019580;28;20213;-74
2023/09/10 13:29:34;;;;;;;7.57;4.60;;;35.20;56.10;35.80;97083.00;;;;5016837;28;21555;-75
2023/09/10 13:32:23;;;;;;;5.72;5.15;;;34.80;56.00;36.40;97076.00;;;;5020302;28;20209;-71
2023/09/10 13:35:13;;;;;;;7.47;4.68;;;34.40;57.10;36.60;97079.00;;;;5016044;28;20197;-71
2023/09/10 13:38:02;;;;;;;5.43;4.82;;;34.30;56.80;36.30;97083.00;;;;5021787;28;20229;-74
2023/09/10 13:40:53;;;;;;;4.97;4.57;;;34.30;55.30;36.00;97076.00;;;;5021401;28;20205;-74
2023/09/10 13:43:42;;;;;;;5.65;5.15;;;34.20;55.20;36.40;97080.00;;;;5020028;28;20204;-73
2023/09/10 13:46:31;;;;;;;6.20;4.45;;;34.00;56.20;37.80;97073.00;;;;5025731;28;20596;-71
2023/09/10 13:49:19;;;;;;;9.80;5.35;;;34.10;56.70;36.90;97081.00;;;;5018826;28;20264;-74
2023/09/10 13:52:11;;;;;;;7.82;5.05;;;34.20;55.30;38.80;97080.00;;;;5018156;28;20200;-74